Time;durP1;ratioP1;P1;durP2;ratioP2;P2;SDS_P1;SDS_P2;PMS_P1;PMS_P2;Temp;Humidity;BMP_temperature;BMP_pressure;BME280_temperature;BME280_humidity;BME280_pressure;Samples;Min_cycle;Max_cycle;Signal;HPM_P1;HPM_P2
2021/06/07 00:00:21;;;;;;;;;;;26.90;97.20;;;;;;1930251;73;20198;-92
2021/06/07 00:02:52;;;;;;;;;;;26.90;97.10;;;;;;1930642;73;20189;-91
2021/06/07 00:05:23;;;;;;;;;;;26.90;97.10;;;;;;1929741;73;20206;-90
2021/06/07 00:07:53;;;;;;;;;;;26.90;97.00;;;;;;1936735;73;20210;-90
2021/06/07 00:10:23;;;;;;;;;;;27.00;97.10;;;;;;1927523;74;20209;-91
2021/06/07 00:12:58;;;;;;;;;;;27.00;97.10;;;;;;1883652;76;20156;-89
2021/06/07 00:15:25;;;;;;;;;;;27.00;97.00;;;;;;1925132;74;20181;-89
2021/06/07 00:17:57;;;;;;;;;;;27.00;97.00;;;;;;1969401;73;20245;-90
2021/06/07 00:20:30;;;;;;;;;;;27.00;96.90;;;;;;1928268;74;20168;-89
2021/06/07 00:23:00;;;;;;;;;;;27.00;96.90;;;;;;1873915;76;20244;-90
2021/06/07 00:25:30;;;;;;;;;;;27.00;96.80;;;;;;1897176;74;20216;-90
2021/06/07 00:28:00;;;;;;;;;;;27.10;97.00;;;;;;1901884;75;20226;-89
2021/06/07 00:30:31;;;;;;;;;;;27.10;96.90;;;;;;1902700;75;20156;-90
2021/06/07 00:33:01;;;;;;;;;;;27.10;96.80;;;;;;1897221;75;20193;-90
2021/06/07 00:35:31;;;;;;;;;;;27.20;96.90;;;;;;1893850;75;20536;-91
2021/06/07 00:38:01;;;;;;;;;;;27.20;96.60;;;;;;1839707;77;20203;-89
2021/06/07 00:40:32;;;;;;;;;;;27.20;96.50;;;;;;1843694;77;20258;-86
2021/06/07 00:43:02;;;;;;;;;;;27.30;96.60;;;;;;1872079;76;20175;-88
2021/06/07 00:45:34;;;;;;;;;;;27.30;96.10;;;;;;1876448;76;20157;-88
2021/06/07 00:48:05;;;;;;;;;;;27.40;96.00;;;;;;1878797;76;20177;-88
2021/06/07 00:50:36;;;;;;;;;;;27.40;96.00;;;;;;1878430;76;20126;-86
2021/06/07 00:53:07;;;;;;;;;;;27.40;95.90;;;;;;1875826;76;20232;-89
2021/06/07 00:55:37;;;;;;;;;;;27.50;95.80;;;;;;1877147;76;20172;-88
2021/06/07 00:58:07;;;;;;;;;;;27.50;95.40;;;;;;1886227;74;20405;-90
2021/06/07 01:00:39;;;;;;;;;;;27.50;95.50;;;;;;1877453;76;20207;-92
2021/06/07 01:03:10;;;;;;;;;;;27.60;95.60;;;;;;1891971;73;20132;-91
2021/06/07 01:05:42;;;;;;;;;;;27.70;95.50;;;;;;1894690;75;20189;-90
2021/06/07 01:08:12;;;;;;;;;;;27.80;95.40;;;;;;1892120;75;20153;-91
2021/06/07 01:10:43;;;;;;;;;;;27.90;95.00;;;;;;1891722;75;20184;-91
2021/06/07 01:13:16;;;;;;;;;;;28.00;94.50;;;;;;1891026;75;20222;-92
2021/06/07 01:15:46;;;;;;;;;;;28.00;94.70;;;;;;1890600;75;20137;-90
2021/06/07 01:18:16;;;;;;;;;;;28.10;94.70;;;;;;1896348;75;20405;-91
2021/06/07 01:20:52;;;;;;;;;;;28.20;94.10;;;;;;1901245;75;20249;-92
2021/06/07 01:23:22;;;;;;;;;;;28.20;93.90;;;;;;1891745;75;20184;-91
2021/06/07 01:25:53;;;;;;;;;;;28.30;93.90;;;;;;1917935;74;20197;-92
2021/06/07 01:28:23;;;;;;;;;;;28.30;93.90;;;;;;1926376;74;20178;-91
2021/06/07 01:30:54;;;;;;;;;;;28.40;93.50;;;;;;1882066;74;20485;-90
2021/06/07 01:33:27;;;;;;;;;;;28.50;93.20;;;;;;1883075;76;20446;-91
2021/06/07 01:35:58;;;;;;;;;;;28.60;93.10;;;;;;1877471;76;20224;-90
2021/06/07 01:38:28;;;;;;;;;;;28.60;92.90;;;;;;1880666;76;20210;-92
2021/06/07 01:40:59;;;;;;;;;;;28.70;92.90;;;;;;1882297;75;20190;-92
2021/06/07 01:43:30;;;;;;;;;;;28.70;92.50;;;;;;1880276;76;20283;-88
2021/06/07 01:46:00;;;;;;;;;;;28.80;92.50;;;;;;1883511;76;20190;-89
2021/06/07 01:48:29;;;;;;;;;;;28.80;91.90;;;;;;1877884;76;20220;-89
2021/06/07 01:51:01;;;;;;;;;;;28.80;92.00;;;;;;1870852;76;20496;-89
2021/06/07 01:53:32;;;;;;;;;;;28.90;91.90;;;;;;1888020;76;20159;-90
2021/06/07 01:56:04;;;;;;;;;;;28.90;92.00;;;;;;1882699;76;20217;-88
2021/06/07 01:58:35;;;;;;;;;;;28.90;92.10;;;;;;1922927;74;20504;-89
2021/06/07 02:01:06;;;;;;;;;;;28.90;91.70;;;;;;1911022;74;20215;-89
2021/06/07 02:03:36;;;;;;;;;;;28.90;92.00;;;;;;1911084;74;20203;-89
2021/06/07 02:06:08;;;;;;;;;;;29.00;92.10;;;;;;1924329;74;20265;-89
2021/06/07 02:08:39;;;;;;;;;;;29.00;92.10;;;;;;1918741;74;20160;-88
2021/06/07 02:11:10;;;;;;;;;;;29.10;92.10;;;;;;1932449;74;20180;-92
2021/06/07 02:13:45;;;;;;;;;;;29.10;91.90;;;;;;1885309;75;20221;-89
2021/06/07 02:16:17;;;;;;;;;;;29.10;91.90;;;;;;1907906;74;20181;-86
2021/06/07 02:18:47;;;;;;;;;;;29.10;91.40;;;;;;1891231;74;20484;-87
2021/06/07 02:21:18;;;;;;;;;;;29.10;91.40;;;;;;1910699;74;20128;-86
2021/06/07 02:23:48;;;;;;;;;;;29.20;91.60;;;;;;1923259;74;20226;-87
2021/06/07 02:26:19;;;;;;;;;;;29.20;91.50;;;;;;1903540;74;20197;-88
2021/06/07 02:28:52;;;;;;;;;;;29.30;91.60;;;;;;1965699;72;20558;-88
2021/06/07 02:31:23;;;;;;;;;;;29.30;91.40;;;;;;1937883;73;20201;-87
2021/06/07 02:33:54;;;;;;;;;;;29.40;91.40;;;;;;1957439;73;20276;-88
2021/06/07 02:36:25;;;;;;;;;;;29.40;91.00;;;;;;1920385;74;20160;-86
2021/06/07 02:38:55;;;;;;;;;;;29.40;90.80;;;;;;1903845;74;20257;-87
2021/06/07 02:41:26;;;;;;;;;;;29.40;91.30;;;;;;1901983;74;20597;-87
2021/06/07 02:43:56;;;;;;;;;;;29.40;90.70;;;;;;1943033;73;20257;-88
2021/06/07 02:46:26;;;;;;;;;;;29.40;90.80;;;;;;1910348;74;20199;-83
2021/06/07 02:48:56;;;;;;;;;;;29.50;90.50;;;;;;1940846;73;20135;-87
2021/06/07 02:51:26;;;;;;;;;;;29.50;90.20;;;;;;1914884;74;20187;-90
2021/06/07 02:53:56;;;;;;;;;;;29.60;89.70;;;;;;1940881;73;20260;-90
2021/06/07 02:56:27;;;;;;;;;;;29.70;90.10;;;;;;1911910;74;20182;-89
2021/06/07 02:58:58;;;;;;;;;;;29.80;90.00;;;;;;1958928;73;20472;-89
2021/06/07 03:01:28;;;;;;;;;;;29.80;89.50;;;;;;1913148;74;20465;-89
2021/06/07 03:04:01;;;;;;;;;;;29.90;88.70;;;;;;1948975;73;20220;-89
2021/06/07 03:06:31;;;;;;;;;;;29.90;89.50;;;;;;1953649;73;20217;-90
2021/06/07 03:09:01;;;;;;;;;;;30.00;89.00;;;;;;1912238;74;20205;-89
2021/06/07 03:11:32;;;;;;;;;;;30.10;88.80;;;;;;1954429;72;20193;-90
2021/06/07 03:14:02;;;;;;;;;;;30.20;87.60;;;;;;1915331;74;20123;-91
2021/06/07 03:16:32;;;;;;;;;;;30.20;86.00;;;;;;1953014;73;20196;-90
2021/06/07 03:19:03;;;;;;;;;;;30.30;86.40;;;;;;1959678;72;20160;-89
2021/06/07 03:21:32;;;;;;;;;;;30.30;86.90;;;;;;1915164;74;20264;-91
2021/06/07 03:24:02;;;;;;;;;;;30.40;87.10;;;;;;1955740;72;20232;-91
2021/06/07 03:26:32;;;;;;;;;;;30.40;87.50;;;;;;1956779;72;20189;-90
2021/06/07 03:29:05;;;;;;;;;;;30.50;86.10;;;;;;1917147;74;20179;-89
2021/06/07 03:31:35;;;;;;;;;;;30.50;85.30;;;;;;1920513;74;20142;-89
2021/06/07 03:34:05;;;;;;;;;;;30.50;85.70;;;;;;1935923;74;20127;-90
2021/06/07 03:36:35;;;;;;;;;;;30.60;85.30;;;;;;1938509;74;20166;-92
2021/06/07 03:39:05;;;;;;;;;;;30.70;85.20;;;;;;1939662;74;20174;-90
2021/06/07 03:41:35;;;;;;;;;;;30.80;85.20;;;;;;1920696;74;20256;-91
2021/06/07 03:44:05;;;;;;;;;;;30.90;83.10;;;;;;1888822;76;20147;-90
2021/06/07 03:46:35;;;;;;;;;;;30.90;83.90;;;;;;1896423;76;20218;-91
2021/06/07 03:49:05;;;;;;;;;;;31.10;83.70;;;;;;1914055;74;20173;-89
2021/06/07 03:51:34;;;;;;;;;;;31.10;83.10;;;;;;1862474;76;20235;-92
2021/06/07 03:54:04;;;;;;;;;;;31.20;81.00;;;;;;1939522;74;20486;-89
2021/06/07 03:56:34;;;;;;;;;;;31.30;81.20;;;;;;1939501;74;20183;-92
2021/06/07 03:59:04;;;;;;;;;;;31.30;81.60;;;;;;1937400;74;20175;-91
2021/06/07 04:01:34;;;;;;;;;;;31.30;82.00;;;;;;1922550;74;20125;-89
2021/06/07 04:04:03;;;;;;;;;;;31.30;81.50;;;;;;1922800;74;20172;-90
2021/06/07 04:06:33;;;;;;;;;;;31.40;81.30;;;;;;1929838;74;20436;-89
2021/06/07 04:09:04;;;;;;;;;;;31.30;80.90;;;;;;1930017;74;20129;-87
2021/06/07 04:11:36;;;;;;;;;;;31.20;82.00;;;;;;1930707;74;20236;-87
2021/06/07 04:14:06;;;;;;;;;;;31.10;81.70;;;;;;1930348;74;20229;-89
2021/06/07 04:16:36;;;;;;;;;;;31.00;81.80;;;;;;1924319;74;20414;-89
2021/06/07 04:19:06;;;;;;;;;;;30.90;82.40;;;;;;1925335;74;20188;-89
2021/06/07 04:21:37;;;;;;;;;;;30.90;82.70;;;;;;1929068;74;20136;-89
2021/06/07 04:24:07;;;;;;;;;;;30.90;83.00;;;;;;1927768;74;20158;-88
2021/06/07 04:26:40;;;;;;;;;;;30.90;82.80;;;;;;1921887;72;20194;-88
2021/06/07 04:29:09;;;;;;;;;;;30.90;82.70;;;;;;1921391;74;20193;-89
2021/06/07 04:31:39;;;;;;;;;;;30.90;82.10;;;;;;1844606;77;20195;-89
2021/06/07 04:34:10;;;;;;;;;;;31.00;82.40;;;;;;1876876;75;20167;-88
2021/06/07 04:36:39;;;;;;;;;;;30.90;81.80;;;;;;1869390;76;20197;-89
2021/06/07 04:39:10;;;;;;;;;;;31.00;82.10;;;;;;1873941;76;20183;-88
2021/06/07 04:41:40;;;;;;;;;;;31.00;82.40;;;;;;1895024;75;20587;-87
2021/06/07 04:44:10;;;;;;;;;;;31.10;81.80;;;;;;1899500;74;20815;-89
2021/06/07 04:46:42;;;;;;;;;;;31.10;81.80;;;;;;1895449;74;20496;-89
2021/06/07 04:49:12;;;;;;;;;;;31.10;81.20;;;;;;1893734;75;20208;-88
2021/06/07 04:51:41;;;;;;;;;;;31.10;81.60;;;;;;1896060;75;20247;-88
2021/06/07 04:54:11;;;;;;;;;;;31.20;81.10;;;;;;1870493;75;20196;-87
2021/06/07 04:56:41;;;;;;;;;;;31.20;80.00;;;;;;1873143;75;20187;-89
2021/06/07 04:59:10;;;;;;;;;;;31.10;80.60;;;;;;1865057;76;20368;-89
2021/06/07 05:01:40;;;;;;;;;;;31.20;81.30;;;;;;1875790;75;20213;-90
2021/06/07 05:04:10;;;;;;;;;;;31.20;80.20;;;;;;1873204;75;20457;-89
2021/06/07 05:06:42;;;;;;;;;;;31.30;80.50;;;;;;1872206;75;20183;-89
2021/06/07 05:09:13;;;;;;;;;;;31.40;80.20;;;;;;1872735;75;20419;-90
2021/06/07 05:11:45;;;;;;;;;;;31.40;80.00;;;;;;1888172;75;20438;-89
2021/06/07 05:14:14;;;;;;;;;;;31.40;79.50;;;;;;1871126;76;20128;-88
2021/06/07 05:16:44;;;;;;;;;;;31.40;79.70;;;;;;1885042;76;20228;-89
2021/06/07 05:19:14;;;;;;;;;;;31.40;80.00;;;;;;1875580;75;20185;-87
2021/06/07 05:21:43;;;;;;;;;;;31.40;79.80;;;;;;1906676;75;20486;-87
2021/06/07 05:24:13;;;;;;;;;;;31.40;80.00;;;;;;1904719;74;20449;-88
2021/06/07 05:26:42;;;;;;;;;;;31.40;80.50;;;;;;1911533;74;20191;-88
2021/06/07 05:29:12;;;;;;;;;;;31.40;79.70;;;;;;1927233;73;20239;-89
2021/06/07 05:31:41;;;;;;;;;;;31.30;79.20;;;;;;1907636;74;20758;-88
2021/06/07 05:34:11;;;;;;;;;;;31.40;80.20;;;;;;1914304;74;20158;-88
2021/06/07 05:36:41;;;;;;;;;;;31.40;79.40;;;;;;1914883;73;20465;-89
2021/06/07 05:39:15;;;;;;;;;;;31.40;79.00;;;;;;1909456;74;20163;-85
2021/06/07 05:41:42;;;;;;;;;;;31.40;78.80;;;;;;1920654;73;20522;-90
2021/06/07 05:44:11;;;;;;;;;;;31.40;78.90;;;;;;1920521;74;20200;-91
2021/06/07 05:46:42;;;;;;;;;;;31.40;79.10;;;;;;1924652;74;20178;-90
2021/06/07 05:49:12;;;;;;;;;;;31.40;78.70;;;;;;1930076;73;20219;-89
2021/06/07 05:51:42;;;;;;;;;;;31.40;77.60;;;;;;1923876;74;20214;-89
2021/06/07 05:54:12;;;;;;;;;;;31.50;78.30;;;;;;1923799;74;20202;-89
2021/06/07 05:56:41;;;;;;;;;;;31.60;77.40;;;;;;1925696;74;20153;-89
2021/06/07 05:59:12;;;;;;;;;;;31.60;76.80;;;;;;1923986;74;20176;-89
2021/06/07 06:01:41;;;;;;;;;;;31.70;76.60;;;;;;1926497;73;20520;-90
2021/06/07 06:04:11;;;;;;;;;;;31.70;77.60;;;;;;1919997;74;20128;-89
2021/06/07 06:06:40;;;;;;;;;;;31.80;76.90;;;;;;1938700;73;20178;-88
2021/06/07 06:09:11;;;;;;;;;;;31.80;76.90;;;;;;1917755;73;20236;-89
2021/06/07 06:11:42;;;;;;;;;;;31.80;77.90;;;;;;1898293;74;20176;-88
2021/06/07 06:14:12;;;;;;;;;;;31.80;77.00;;;;;;1908093;74;20171;-88
2021/06/07 06:16:42;;;;;;;;;;;31.80;77.60;;;;;;1906306;75;20182;-86
2021/06/07 06:19:12;;;;;;;;;;;31.70;77.80;;;;;;1909446;74;20503;-87
2021/06/07 06:21:42;;;;;;;;;;;31.60;78.40;;;;;;1921012;74;20130;-88
2021/06/07 06:24:13;;;;;;;;;;;31.50;78.90;;;;;;1930242;74;20347;-86
2021/06/07 06:26:45;;;;;;;;;;;31.40;79.40;;;;;;1922305;74;20496;-88
2021/06/07 06:29:14;;;;;;;;;;;31.40;79.70;;;;;;1920985;74;20214;-88
2021/06/07 06:31:44;;;;;;;;;;;31.30;79.70;;;;;;1914711;74;20198;-86
2021/06/07 06:34:14;;;;;;;;;;;31.30;80.10;;;;;;1906165;74;20190;-87
2021/06/07 06:36:57;;;;;;;;;;;31.20;80.00;;;;;;1911160;74;20213;-89
2021/06/07 06:39:16;;;;;;;;;;;31.10;79.60;;;;;;1917997;74;20203;-89
2021/06/07 06:41:45;;;;;;;;;;;31.10;80.90;;;;;;1923841;74;20183;-88
2021/06/07 06:44:15;;;;;;;;;;;30.90;83.40;;;;;;1925000;74;20206;-87
2021/06/07 06:46:45;;;;;;;;;;;30.80;83.80;;;;;;1927724;74;20241;-87
2021/06/07 06:49:19;;;;;;;;;;;30.70;86.80;;;;;;1924615;74;20195;-86
2021/06/07 06:51:46;;;;;;;;;;;30.60;90.50;;;;;;1926155;74;20240;-87
2021/06/07 06:54:19;;;;;;;;;;;30.40;88.80;;;;;;1930819;74;20207;-88
2021/06/07 06:56:50;;;;;;;;;;;30.30;89.70;;;;;;1932971;74;20197;-87
2021/06/07 06:59:20;;;;;;;;;;;30.30;89.30;;;;;;1938006;73;20182;-86
2021/06/07 07:01:58;;;;;;;;;;;30.20;89.00;;;;;;1926431;74;20229;-86
2021/06/07 07:04:27;;;;;;;;;;;30.20;89.20;;;;;;1924671;73;20224;-86
2021/06/07 07:06:57;;;;;;;;;;;30.20;90.20;;;;;;1939416;74;20158;-86
2021/06/07 07:09:26;;;;;;;;;;;30.20;90.10;;;;;;1922065;74;20429;-86
2021/06/07 07:11:57;;;;;;;;;;;30.20;90.60;;;;;;1908940;74;20378;-86
2021/06/07 07:14:28;;;;;;;;;;;30.20;90.80;;;;;;1904597;74;20125;-86
2021/06/07 07:16:57;;;;;;;;;;;30.20;91.10;;;;;;1880916;75;20199;-87
2021/06/07 07:19:27;;;;;;;;;;;30.20;91.30;;;;;;1871304;75;20436;-88
2021/06/07 07:21:57;;;;;;;;;;;30.20;91.40;;;;;;1890173;76;20219;-86
2021/06/07 07:24:26;;;;;;;;;;;30.20;91.40;;;;;;1883449;76;20490;-86
2021/06/07 07:26:56;;;;;;;;;;;30.20;92.20;;;;;;1883115;75;20272;-86
2021/06/07 07:29:26;;;;;;;;;;;30.10;92.10;;;;;;1888897;74;20458;-87
2021/06/07 07:31:56;;;;;;;;;;;30.00;91.90;;;;;;1894339;75;20180;-87
2021/06/07 07:34:27;;;;;;;;;;;29.90;91.20;;;;;;1890358;76;20174;-87
2021/06/07 07:36:56;;;;;;;;;;;29.90;92.00;;;;;;1935147;73;20446;-86
2021/06/07 07:39:26;;;;;;;;;;;29.80;92.30;;;;;;1961762;73;20369;-86
2021/06/07 07:41:56;;;;;;;;;;;29.70;91.90;;;;;;1933843;74;20125;-88
2021/06/07 07:44:25;;;;;;;;;;;29.70;92.10;;;;;;1948074;73;20557;-87
2021/06/07 07:46:55;;;;;;;;;;;29.70;91.80;;;;;;1951187;73;20117;-86
2021/06/07 07:49:25;;;;;;;;;;;29.70;92.50;;;;;;1938051;73;20175;-87
2021/06/07 07:51:54;;;;;;;;;;;29.70;92.20;;;;;;1964243;73;20226;-86
2021/06/07 07:54:24;;;;;;;;;;;29.70;92.40;;;;;;1948874;73;20483;-87
2021/06/07 07:56:58;;;;;;;;;;;29.70;92.40;;;;;;1926861;73;20222;-87
2021/06/07 07:59:28;;;;;;;;;;;29.70;92.40;;;;;;1930982;73;20122;-87
2021/06/07 08:02:04;;;;;;;;;;;29.80;92.60;;;;;;1931564;73;20193;-87
2021/06/07 08:04:34;;;;;;;;;;;29.80;92.20;;;;;;1907303;73;20194;-86
2021/06/07 08:07:04;;;;;;;;;;;29.70;92.10;;;;;;1930393;73;20226;-87
2021/06/07 08:09:36;;;;;;;;;;;29.60;92.50;;;;;;1915280;74;20208;-87
2021/06/07 08:12:06;;;;;;;;;;;29.60;92.30;;;;;;1927545;73;20213;-87
2021/06/07 08:14:36;;;;;;;;;;;29.50;92.40;;;;;;1934598;73;20186;-88
2021/06/07 08:17:21;;;;;;;;;;;29.40;92.40;;;;;;1883720;75;20229;-90
2021/06/07 08:19:59;;;;;;;;;;;29.40;92.50;;;;;;1924410;73;20133;-88
2021/06/07 08:22:34;;;;;;;;;;;29.30;92.40;;;;;;1945790;73;20216;-87
2021/06/07 08:25:19;;;;;;;;;;;29.20;92.60;;;;;;1935684;73;20239;-88
2021/06/07 08:27:58;;;;;;;;;;;29.20;92.50;;;;;;1927523;73;20224;-88
2021/06/07 08:30:36;;;;;;;;;;;29.10;92.60;;;;;;1897154;74;20345;-88
2021/06/07 08:33:07;;;;;;;;;;;29.10;92.90;;;;;;1881749;75;20197;-88
2021/06/07 08:35:38;;;;;;;;;;;29.10;92.90;;;;;;1823466;77;20194;-88
2021/06/07 08:38:08;;;;;;;;;;;29.10;93.30;;;;;;1903547;74;20180;-88
2021/06/07 08:40:38;;;;;;;;;;;29.10;92.80;;;;;;1883847;75;20525;-90
2021/06/07 08:43:09;;;;;;;;;;;29.10;92.60;;;;;;1874260;75;20191;-90
2021/06/07 08:45:40;;;;;;;;;;;29.10;92.30;;;;;;1866928;77;20188;-87
2021/06/07 08:48:10;;;;;;;;;;;29.00;92.60;;;;;;1857354;76;20185;-87
2021/06/07 08:50:39;;;;;;;;;;;29.00;93.10;;;;;;1862314;76;20506;-86
2021/06/07 08:53:10;;;;;;;;;;;28.90;92.70;;;;;;1852489;77;20224;-86
2021/06/07 08:55:40;;;;;;;;;;;28.80;92.90;;;;;;1853535;75;20186;-80
2021/06/07 08:58:13;;;;;;;;;;;28.80;93.20;;;;;;1863527;77;20488;-80
2021/06/07 09:00:44;;;;;;;;;;;28.80;93.00;;;;;;1898489;74;20236;-80
2021/06/07 09:03:15;;;;;;;;;;;28.70;93.40;;;;;;1876854;74;20645;-80
2021/06/07 09:05:46;;;;;;;;;;;28.80;93.40;;;;;;1874989;76;20264;-80
2021/06/07 09:08:16;;;;;;;;;;;28.80;93.40;;;;;;1877031;75;20197;-80
2021/06/07 09:10:48;;;;;;;;;;;28.80;93.60;;;;;;1866422;75;20180;-79
2021/06/07 09:13:19;;;;;;;;;;;28.70;93.60;;;;;;1873350;75;20691;-80
2021/06/07 09:15:50;;;;;;;;;;;28.70;93.50;;;;;;1828819;78;20524;-80
2021/06/07 09:18:21;;;;;;;;;;;28.70;93.70;;;;;;1827032;76;20273;-79
2021/06/07 09:20:50;;;;;;;;;;;28.70;93.40;;;;;;1851772;77;20256;-80
2021/06/07 09:23:22;;;;;;;;;;;28.70;93.40;;;;;;1859124;75;20179;-80
2021/06/07 09:25:54;;;;;;;;;;;28.80;94.00;;;;;;1858823;76;20403;-80
2021/06/07 09:28:24;;;;;;;;;;;28.80;93.90;;;;;;1855770;76;20203;-78
2021/06/07 09:30:55;;;;;;;;;;;28.80;93.80;;;;;;1873453;74;20175;-80
2021/06/07 09:33:25;;;;;;;;;;;28.80;94.10;;;;;;1886913;74;20175;-80
2021/06/07 09:35:56;;;;;;;;;;;28.70;93.90;;;;;;1880385;74;20206;-80
2021/06/07 09:38:26;;;;;;;;;;;28.70;94.60;;;;;;1866938;74;20271;-80
2021/06/07 09:40:57;;;;;;;;;;;28.70;94.40;;;;;;1867223;75;20651;-79
2021/06/07 09:43:28;;;;;;;;;;;28.70;94.20;;;;;;1868707;75;20599;-80
2021/06/07 09:45:59;;;;;;;;;;;28.70;94.30;;;;;;1873262;74;20164;-79
2021/06/07 09:48:29;;;;;;;;;;;28.70;94.50;;;;;;1887633;74;20488;-79
2021/06/07 09:51:01;;;;;;;;;;;28.70;94.50;;;;;;1900269;74;20206;-80
2021/06/07 09:53:38;;;;;;;;;;;28.60;94.20;;;;;;1896903;74;20152;-79
2021/06/07 09:56:07;;;;;;;;;;;28.70;94.90;;;;;;1854232;77;20188;-79
2021/06/07 09:58:40;;;;;;;;;;;28.70;94.90;;;;;;1869207;74;20171;-79
2021/06/07 10:01:12;;;;;;;;;;;28.50;95.00;;;;;;1869469;74;20206;-79
2021/06/07 10:03:43;;;;;;;;;;;28.40;95.10;;;;;;1868054;74;20210;-78
2021/06/07 10:06:14;;;;;;;;;;;28.20;94.50;;;;;;1884221;74;20222;-79
2021/06/07 10:08:45;;;;;;;;;;;27.80;94.10;;;;;;1858808;77;20782;-89
2021/06/07 10:11:16;;;;;;;;;;;27.50;94.30;;;;;;1881018;76;20133;-88
2021/06/07 10:13:47;;;;;;;;;;;27.10;94.40;;;;;;1870339;76;20249;-89
2021/06/07 10:16:20;;;;;;;;;;;26.80;95.00;;;;;;1871661;74;20182;-87
2021/06/07 10:18:50;;;;;;;;;;;26.50;95.80;;;;;;1878310;74;20224;-87
2021/06/07 10:21:21;;;;;;;;;;;26.30;96.60;;;;;;1873912;75;20183;-88
2021/06/07 10:23:51;;;;;;;;;;;26.10;97.30;;;;;;1871443;76;20745;-88
2021/06/07 10:26:24;;;;;;;;;;;26.00;97.60;;;;;;1874241;75;20236;-87
2021/06/07 10:28:55;;;;;;;;;;;25.80;98.20;;;;;;1876937;74;20239;-91
2021/06/07 10:31:27;;;;;;;;;;;25.80;99.40;;;;;;1940376;72;20182;-86
2021/06/07 10:33:58;;;;;;;;;;;25.80;99.90;;;;;;1937917;73;20234;-88
2021/06/07 10:36:29;;;;;;;;;;;25.80;99.90;;;;;;1919073;73;20124;-89
2021/06/07 10:39:00;;;;;;;;;;;25.80;99.90;;;;;;1927668;73;20221;-89
2021/06/07 10:41:31;;;;;;;;;;;25.90;99.90;;;;;;1933303;73;20121;-88
2021/06/07 10:44:01;;;;;;;;;;;25.80;99.90;;;;;;1943944;73;20214;-88
2021/06/07 10:46:33;;;;;;;;;;;25.80;99.90;;;;;;1904457;73;20469;-86
2021/06/07 10:49:05;;;;;;;;;;;25.80;99.90;;;;;;1905665;74;20140;-87
2021/06/07 10:51:35;;;;;;;;;;;25.80;99.90;;;;;;1913771;74;20191;-88
2021/06/07 10:54:08;;;;;;;;;;;25.90;99.90;;;;;;1908677;74;20195;-88
2021/06/07 10:56:41;;;;;;;;;;;25.90;99.90;;;;;;1918164;74;20203;-88
2021/06/07 10:59:12;;;;;;;;;;;25.90;99.90;;;;;;1922514;73;20208;-87
2021/06/07 11:01:43;;;;;;;;;;;25.90;99.90;;;;;;1916321;73;20195;-87
2021/06/07 11:04:14;;;;;;;;;;;26.10;99.90;;;;;;1911454;73;20213;-87
2021/06/07 11:06:47;;;;;;;;;;;26.10;99.90;;;;;;1917359;74;20256;-86
2021/06/07 11:09:18;;;;;;;;;;;26.10;99.90;;;;;;1916420;74;20245;-87
2021/06/07 11:11:48;;;;;;;;;;;26.10;99.90;;;;;;1914538;73;20156;-87
2021/06/07 11:14:22;;;;;;;;;;;26.10;99.90;;;;;;1921915;73;20217;-87
2021/06/07 11:16:50;;;;;;;;;;;26.10;99.90;;;;;;1926439;73;20507;-86
2021/06/07 11:19:21;;;;;;;;;;;26.20;99.90;;;;;;1888221;74;20174;-87
2021/06/07 11:21:53;;;;;;;;;;;26.20;99.90;;;;;;1883087;76;20148;-87
2021/06/07 11:24:24;;;;;;;;;;;26.20;99.90;;;;;;1866989;75;20211;-88
2021/06/07 11:26:56;;;;;;;;;;;26.30;99.90;;;;;;1891458;76;20234;-86
2021/06/07 11:29:29;;;;;;;;;;;26.30;99.90;;;;;;1892580;74;20274;-87
2021/06/07 11:32:01;;;;;;;;;;;26.40;99.90;;;;;;1862211;74;20209;-87
2021/06/07 11:34:32;;;;;;;;;;;26.40;99.90;;;;;;1866054;75;20230;-87
2021/06/07 11:37:02;;;;;;;;;;;26.40;99.90;;;;;;1929121;73;20178;-88
2021/06/07 11:39:35;;;;;;;;;;;26.50;99.90;;;;;;1909051;73;20211;-90
2021/06/07 11:42:05;;;;;;;;;;;26.50;99.90;;;;;;1926812;73;20200;-88
2021/06/07 11:44:38;;;;;;;;;;;26.50;99.90;;;;;;1934611;72;20147;-89
2021/06/07 11:47:09;;;;;;;;;;;26.50;99.90;;;;;;1934530;73;20112;-89
2021/06/07 11:49:40;;;;;;;;;;;26.50;99.90;;;;;;1958917;73;20483;-88
2021/06/07 11:52:12;;;;;;;;;;;26.60;99.90;;;;;;1925832;72;20428;-88
2021/06/07 11:54:44;;;;;;;;;;;26.60;99.90;;;;;;1939606;73;20220;-88
2021/06/07 11:57:15;;;;;;;;;;;26.60;99.90;;;;;;1920190;73;20278;-88
2021/06/07 11:59:44;;;;;;;;;;;26.60;99.90;;;;;;1932955;73;20216;-87
2021/06/07 12:02:16;;;;;;;;;;;26.60;99.90;;;;;;1926048;73;20175;-88
2021/06/07 12:04:48;;;;;;;;;;;26.60;99.90;;;;;;1910934;74;20223;-88
2021/06/07 12:07:18;;;;;;;;;;;26.50;99.90;;;;;;1927376;73;20251;-88
2021/06/07 12:09:49;;;;;;;;;;;26.50;99.90;;;;;;1924476;73;20304;-89
2021/06/07 12:12:19;;;;;;;;;;;26.60;99.90;;;;;;1908213;73;20157;-89
2021/06/07 12:14:53;;;;;;;;;;;26.50;99.90;;;;;;1925626;73;20128;-89
2021/06/07 12:17:26;;;;;;;;;;;26.50;99.90;;;;;;1928363;73;20209;-89
2021/06/07 12:19:57;;;;;;;;;;;26.50;99.90;;;;;;1925131;73;20818;-87
2021/06/07 12:22:26;;;;;;;;;;;26.50;99.90;;;;;;1920382;73;20189;-88
2021/06/07 12:24:59;;;;;;;;;;;26.50;99.90;;;;;;1914400;73;20419;-89
2021/06/07 12:30:02;;;;;;;;;;;26.50;99.90;;;;;;1916608;73;20185;-89
2021/06/07 12:32:31;;;;;;;;;;;26.50;99.90;;;;;;1889728;74;20212;-88
2021/06/07 12:35:02;;;;;;;;;;;26.60;99.90;;;;;;1879846;74;20409;-88
2021/06/07 12:37:35;;;;;;;;;;;26.60;99.90;;;;;;1892210;74;20214;-88
2021/06/07 12:40:09;;;;;;;;;;;26.50;99.90;;;;;;1899474;74;20222;-88
2021/06/07 12:42:46;;;;;;;;;;;26.50;99.90;;;;;;1887434;74;20158;-89
2021/06/07 12:45:16;;;;;;;;;;;26.60;99.90;;;;;;1896664;74;20198;-88
2021/06/07 12:47:47;;;;;;;;;;;26.60;99.90;;;;;;1896435;75;20175;-88
2021/06/07 12:50:20;;;;;;;;;;;26.60;99.90;;;;;;1889981;75;20134;-88
2021/06/07 12:52:56;;;;;;;;;;;26.60;99.90;;;;;;1888935;74;20283;-88
2021/06/07 12:55:27;;;;;;;;;;;26.70;99.90;;;;;;1892181;75;20132;-88
2021/06/07 12:57:58;;;;;;;;;;;26.60;99.90;;;;;;1900593;74;20258;-89
2021/06/07 13:00:29;;;;;;;;;;;26.70;99.90;;;;;;1882398;74;20191;-89
2021/06/07 13:03:06;;;;;;;;;;;26.70;99.90;;;;;;1889306;74;20185;-88
2021/06/07 13:05:40;;;;;;;;;;;26.60;99.90;;;;;;1881742;75;20258;-88
2021/06/07 13:08:11;;;;;;;;;;;26.60;99.90;;;;;;1885194;75;20183;-90
2021/06/07 13:10:43;;;;;;;;;;;26.60;99.90;;;;;;1836726;76;20175;-89
2021/06/07 13:13:15;;;;;;;;;;;26.60;99.90;;;;;;1831501;76;20127;-89
2021/06/07 13:15:46;;;;;;;;;;;26.60;99.90;;;;;;1825975;77;20245;-88
2021/06/07 13:18:16;;;;;;;;;;;26.70;99.90;;;;;;1851818;76;20330;-88
2021/06/07 13:20:46;;;;;;;;;;;26.70;99.90;;;;;;1893337;74;20471;-88
2021/06/07 13:23:17;;;;;;;;;;;26.70;99.90;;;;;;1854847;76;20227;-89
2021/06/07 13:25:47;;;;;;;;;;;26.70;99.90;;;;;;1898163;74;20199;-89
2021/06/07 13:28:17;;;;;;;;;;;26.70;99.90;;;;;;1900594;74;20166;-90
2021/06/07 13:30:47;;;;;;;;;;;26.70;99.90;;;;;;1899104;73;20207;-90
2021/06/07 13:33:19;;;;;;;;;;;26.60;99.90;;;;;;1894247;74;20198;-89
2021/06/07 13:35:59;;;;;;;;;;;26.50;99.90;;;;;;1894067;74;20578;-89
2021/06/07 13:38:35;;;;;;;;;;;26.40;99.90;;;;;;1853187;76;20189;-90
2021/06/07 13:41:08;;;;;;;;;;;26.40;99.90;;;;;;1829372;77;20660;-90
2021/06/07 13:43:37;;;;;;;;;;;26.40;99.90;;;;;;1864483;76;20379;-90
2021/06/07 13:46:07;;;;;;;;;;;26.40;99.90;;;;;;1895673;74;20872;-89
2021/06/07 13:48:56;;;;;;;;;;;26.40;99.90;;;;;;1851590;76;20197;-90
2021/06/07 13:51:28;;;;;;;;;;;26.40;99.90;;;;;;1849456;76;20216;-90
2021/06/07 13:54:02;;;;;;;;;;;26.40;99.90;;;;;;1854902;76;20807;-91
2021/06/07 13:56:37;;;;;;;;;;;26.50;99.90;;;;;;1813364;77;20215;-90
2021/06/07 13:59:19;;;;;;;;;;;26.50;99.90;;;;;;1820483;77;20198;-90
2021/06/07 14:01:44;;;;;;;;;;;26.50;99.90;;;;;;1820059;77;20250;-90
2021/06/07 14:04:15;;;;;;;;;;;26.50;99.90;;;;;;1899641;74;20665;-91
2021/06/07 14:06:49;;;;;;;;;;;26.40;99.90;;;;;;1902507;74;20241;-91
2021/06/07 14:09:22;;;;;;;;;;;26.40;99.90;;;;;;1898375;74;20246;-91
2021/06/07 14:11:50;;;;;;;;;;;26.40;99.90;;;;;;1852676;76;20205;-90
2021/06/07 14:14:22;;;;;;;;;;;26.40;99.90;;;;;;1895852;74;20508;-91
2021/06/07 14:16:58;;;;;;;;;;;26.30;99.90;;;;;;1892994;74;20143;-91
2021/06/07 14:19:46;;;;;;;;;;;26.30;99.90;;;;;;1894205;74;20220;-89
2021/06/07 14:24:43;;;;;;;;;;;26.30;99.90;;;;;;1900762;74;20162;-90
2021/06/07 14:27:14;;;;;;;;;;;26.40;99.90;;;;;;1898467;74;20185;-88
2021/06/07 14:29:53;;;;;;;;;;;26.40;99.90;;;;;;1900649;74;20368;-90
2021/06/07 14:32:19;;;;;;;;;;;26.40;99.90;;;;;;1901363;74;20940;-89
2021/06/07 14:34:50;;;;;;;;;;;26.40;99.90;;;;;;1903545;74;20153;-90
2021/06/07 14:37:20;;;;;;;;;;;26.50;99.90;;;;;;1897678;74;20512;-89
2021/06/07 14:39:50;;;;;;;;;;;26.50;99.90;;;;;;1895474;73;20181;-89
2021/06/07 14:42:21;;;;;;;;;;;26.50;99.90;;;;;;1900511;74;20254;-89